PWSweather.com
Personal Weather Stations
Station Observations
NOCONAWX
Sherman Street, Nocona, TX 76255

Sherman StreetNocona, TX 76255

Lat: 33.7851771, Lon: -97.7248693

Elevation: 981

Station Type: Davis 6152

http://www.noconaweather.com

Latest ConditionsUpdated 7:45:01 PM CDT Saturday, Apr 19, 2014
Currently Today's Max Today's Min Today's Average
Temperature 72.5°F22.5°C 77.4°F25.2°C 50.4°F10.2°C 57.0°F13.9°C
Dew Point 52.8°F11.6°C 53.8°F12.1°C 44.1°F6.7°C 46.4°F8.0°C
Winds 2.0 mph SE3.2 kmh SE 5.0 mph S8.0 kmh S - 3.9 mph 6.3 kmh
Wind Gusts 7.0 mph11.3 kmh 9.0 mph14.5 kmh - -
Humidity 50% 79% 43% 70%
Pressure 30.03 in1016.9 mb 30.08 in1018.6 mb 30.02 in1016.6 mb -
Hour Temp Dew Point Humidity Winds Wind Gusts Pressure Precip Precip Rate Daily Precip Total
07:45 PM 72.5°F22.5°C 52.8°F11.6°C 50% 2.0 mph SE3.2 kmh SE 7.0 mph11.3 kmh 30.03 in1016.9 mb 0.00 in0.0 mm 0.00 in/hr0.0 mm/hr 0.00 in0.0 mm
07:30 PM 73.7°F23.2°C 52.8°F11.6°C 48% 2.0 mph SE3.2 kmh SE 7.0 mph11.3 kmh 30.04 in1017.3 mb 0.00 in0.0 mm 0.00 in/hr0.0 mm/hr 0.00 in0.0 mm
07:15 PM 74.8°F23.8°C 52.6°F11.4°C 46% 3.0 mph SE4.8 kmh SE 8.0 mph12.9 kmh 30.04 in1017.3 mb 0.00 in0.0 mm 0.00 in/hr0.0 mm/hr 0.00 in0.0 mm
07:00 PM 75.3°F24.1°C 53.7°F12.1°C 47% 3.0 mph SE4.8 kmh SE 7.0 mph11.3 kmh 30.04 in1017.3 mb 0.00 in0.0 mm 0.00 in/hr0.0 mm/hr 0.00 in0.0 mm
06:45 PM 73.6°F23.1°C 52.7°F11.5°C 48% 4.0 mph SSE6.4 kmh SSE 9.0 mph14.5 kmh 30.04 in1017.3 mb 0.00 in0.0 mm 0.00 in/hr0.0 mm/hr 0.00 in0.0 mm
06:30 PM 73.6°F23.1°C 52.7°F11.5°C 48% 3.0 mph SSE4.8 kmh SSE 7.0 mph11.3 kmh 30.04 in1017.3 mb 0.00 in0.0 mm 0.00 in/hr0.0 mm/hr 0.00 in0.0 mm
06:15 PM 74.1°F23.4°C 52.6°F11.4°C 47% 4.0 mph SE6.4 kmh SE 8.0 mph12.9 kmh 30.03 in1016.9 mb 0.00 in0.0 mm 0.00 in/hr0.0 mm/hr 0.00 in0.0 mm
06:00 PM 74.6°F23.7°C 53.0°F11.7°C 47% 4.0 mph SE6.4 kmh SE 5.0 mph8.0 kmh 30.02 in1016.6 mb 0.00 in0.0 mm 0.00 in/hr0.0 mm/hr 0.00 in0.0 mm
05:45 PM 75.0°F23.9°C 52.8°F11.6°C 46% 4.0 mph ESE6.4 kmh ESE 9.0 mph14.5 kmh 30.02 in1016.6 mb 0.00 in0.0 mm 0.00 in/hr0.0 mm/hr 0.00 in0.0 mm
05:30 PM 75.3°F24.1°C 52.5°F11.4°C 45% 3.0 mph E4.8 kmh E 8.0 mph12.9 kmh 30.02 in1016.6 mb 0.00 in0.0 mm 0.00 in/hr0.0 mm/hr 0.00 in0.0 mm
05:15 PM 75.6°F24.2°C 52.1°F11.2°C 44% 4.0 mph SE6.4 kmh SE 9.0 mph14.5 kmh 30.02 in1016.6 mb 0.00 in0.0 mm 0.00 in/hr0.0 mm/hr 0.00 in0.0 mm
05:00 PM 76.1°F24.5°C 52.6°F11.4°C 44% 3.0 mph SE4.8 kmh SE 5.0 mph8.0 kmh 30.03 in1016.9 mb 0.00 in0.0 mm 0.00 in/hr0.0 mm/hr 0.00 in0.0 mm
04:45 PM 76.0°F24.4°C 52.5°F11.4°C 44% 3.0 mph SSE4.8 kmh SSE 8.0 mph12.9 kmh 30.04 in1017.3 mb 0.00 in0.0 mm 0.00 in/hr0.0 mm/hr 0.00 in0.0 mm
04:30 PM 75.8°F24.3°C 52.9°F11.6°C 45% 3.0 mph SSE4.8 kmh SSE 9.0 mph14.5 kmh 30.05 in1017.6 mb 0.00 in0.0 mm 0.00 in/hr0.0 mm/hr 0.00 in0.0 mm
04:15 PM 76.1°F24.5°C 52.6°F11.4°C 44% 3.0 mph S4.8 kmh S 8.0 mph12.9 kmh 30.05 in1017.6 mb 0.00 in0.0 mm 0.00 in/hr0.0 mm/hr 0.00 in0.0 mm
04:00 PM 76.5°F24.7°C 53.6°F12.0°C 45% 4.0 mph SSE6.4 kmh SSE 8.0 mph12.9 kmh 30.05 in1017.6 mb 0.00 in0.0 mm 0.00 in/hr0.0 mm/hr 0.00 in0.0 mm
03:45 PM 77.3°F25.2°C 53.1°F11.7°C 43% 5.0 mph S8.0 kmh S 8.0 mph12.9 kmh 30.06 in1017.9 mb 0.00 in0.0 mm 0.00 in/hr0.0 mm/hr 0.00 in0.0 mm
03:30 PM 77.4°F25.2°C 53.8°F12.1°C 44% 4.0 mph SE6.4 kmh SE 9.0 mph14.5 kmh 30.07 in1018.3 mb 0.00 in0.0 mm 0.00 in/hr0.0 mm/hr 0.00 in0.0 mm
03:15 PM 76.8°F24.9°C 53.2°F11.8°C 44% 4.0 mph SSE6.4 kmh SSE 7.0 mph11.3 kmh 30.07 in1018.3 mb 0.00 in0.0 mm 0.00 in/hr0.0 mm/hr 0.00 in0.0 mm
03:00 PM 77.0°F25.0°C 53.4°F11.9°C 44% 4.0 mph SE6.4 kmh SE 9.0 mph14.5 kmh 30.08 in1018.6 mb 0.00 in0.0 mm 0.00 in/hr0.0 mm/hr 0.00 in0.0 mm
02:45 PM 77.0°F25.0°C 52.8°F11.6°C 43% 4.0 mph SE6.4 kmh SE 8.0 mph12.9 kmh 30.08 in1018.6 mb 0.00 in0.0 mm 0.00 in/hr0.0 mm/hr 0.00 in0.0 mm
02:30 PM 50.4°F10.2°C 44.1°F6.7°C 79% 4.0 mph SE6.4 kmh SE 8.0 mph12.9 kmh 30.03 in1016.9 mb 0.00 in0.0 mm 0.00 in/hr0.0 mm/hr 0.00 in0.0 mm
02:15 PM 50.4°F10.2°C 44.1°F6.7°C 79% 4.0 mph SE6.4 kmh SE 8.0 mph12.9 kmh 30.03 in1016.9 mb 0.00 in0.0 mm 0.00 in/hr0.0 mm/hr 0.00 in0.0 mm
02:00 PM 50.4°F10.2°C 44.1°F6.7°C 79% 4.0 mph SE6.4 kmh SE 8.0 mph12.9 kmh 30.03 in1016.9 mb 0.00 in0.0 mm 0.00 in/hr0.0 mm/hr 0.00 in0.0 mm
01:45 PM 50.4°F10.2°C 44.1°F6.7°C 79% 4.0 mph SE6.4 kmh SE 8.0 mph12.9 kmh 30.03 in1016.9 mb 0.00 in0.0 mm 0.00 in/hr0.0 mm/hr 0.00 in0.0 mm
01:30 PM 50.4°F10.2°C 44.1°F6.7°C 79% 4.0 mph SE6.4 kmh SE 8.0 mph12.9 kmh 30.03 in1016.9 mb 0.00 in0.0 mm 0.00 in/hr0.0 mm/hr 0.00 in0.0 mm
01:15 PM 50.4°F10.2°C 44.1°F6.7°C 79% 4.0 mph SE6.4 kmh SE 8.0 mph12.9 kmh 30.03 in1016.9 mb 0.00 in0.0 mm 0.00 in/hr0.0 mm/hr 0.00 in0.0 mm
01:00 PM 50.4°F10.2°C 44.1°F6.7°C 79% 4.0 mph SE6.4 kmh SE 8.0 mph12.9 kmh 30.03 in1016.9 mb 0.00 in0.0 mm 0.00 in/hr0.0 mm/hr 0.00 in0.0 mm
12:45 PM 50.4°F10.2°C 44.1°F6.7°C 79% 4.0 mph SE6.4 kmh SE 8.0 mph12.9 kmh 30.03 in1016.9 mb 0.00 in0.0 mm 0.00 in/hr0.0 mm/hr 0.00 in0.0 mm
12:30 PM 50.4°F10.2°C 44.1°F6.7°C 79% 4.0 mph SE6.4 kmh SE 8.0 mph12.9 kmh 30.03 in1016.9 mb 0.00 in0.0 mm 0.00 in/hr0.0 mm/hr 0.00 in0.0 mm
12:15 PM 50.4°F10.2°C 44.1°F6.7°C 79% 4.0 mph SE6.4 kmh SE 8.0 mph12.9 kmh 30.03 in1016.9 mb 0.00 in0.0 mm 0.00 in/hr0.0 mm/hr 0.00 in0.0 mm
12:00 PM 50.4°F10.2°C 44.1°F6.7°C 79% 4.0 mph SE6.4 kmh SE 8.0 mph12.9 kmh 30.03 in1016.9 mb 0.00 in0.0 mm 0.00 in/hr0.0 mm/hr 0.00 in0.0 mm
11:45 AM 50.4°F10.2°C 44.1°F6.7°C 79% 4.0 mph SE6.4 kmh SE 8.0 mph12.9 kmh 30.03 in1016.9 mb 0.00 in0.0 mm 0.00 in/hr0.0 mm/hr 0.00 in0.0 mm
11:30 AM 50.4°F10.2°C 44.1°F6.7°C 79% 4.0 mph SE6.4 kmh SE 8.0 mph12.9 kmh 30.03 in1016.9 mb 0.00 in0.0 mm 0.00 in/hr0.0 mm/hr 0.00 in0.0 mm
11:15 AM 50.4°F10.2°C 44.1°F6.7°C 79% 4.0 mph SE6.4 kmh SE 8.0 mph12.9 kmh 30.03 in1016.9 mb 0.00 in0.0 mm 0.00 in/hr0.0 mm/hr 0.00 in0.0 mm
11:00 AM 50.4°F10.2°C 44.1°F6.7°C 79% 4.0 mph SE6.4 kmh SE 8.0 mph12.9 kmh 30.03 in1016.9 mb 0.00 in0.0 mm 0.00 in/hr0.0 mm/hr 0.00 in0.0 mm
10:45 AM 50.4°F10.2°C 44.1°F6.7°C 79% 4.0 mph SE6.4 kmh SE 8.0 mph12.9 kmh 30.03 in1016.9 mb 0.00 in0.0 mm 0.00 in/hr0.0 mm/hr 0.00 in0.0 mm
10:30 AM 50.4°F10.2°C 44.1°F6.7°C 79% 4.0 mph SE6.4 kmh SE 8.0 mph12.9 kmh 30.03 in1016.9 mb 0.00 in0.0 mm 0.00 in/hr0.0 mm/hr 0.00 in0.0 mm
10:15 AM 50.4°F10.2°C 44.1°F6.7°C 79% 4.0 mph SE6.4 kmh SE 8.0 mph12.9 kmh 30.03 in1016.9 mb 0.00 in0.0 mm 0.00 in/hr0.0 mm/hr 0.00 in0.0 mm
10:00 AM 50.4°F10.2°C 44.1°F6.7°C 79% 4.0 mph SE6.4 kmh SE 8.0 mph12.9 kmh 30.03 in1016.9 mb 0.00 in0.0 mm 0.00 in/hr0.0 mm/hr 0.00 in0.0 mm
09:45 AM 50.4°F10.2°C 44.1°F6.7°C 79% 4.0 mph SE6.4 kmh SE 8.0 mph12.9 kmh 30.03 in1016.9 mb 0.00 in0.0 mm 0.00 in/hr0.0 mm/hr 0.00 in0.0 mm
09:30 AM 50.4°F10.2°C 44.1°F6.7°C 79% 4.0 mph SE6.4 kmh SE 8.0 mph12.9 kmh 30.03 in1016.9 mb 0.00 in0.0 mm 0.00 in/hr0.0 mm/hr 0.00 in0.0 mm
09:15 AM 50.4°F10.2°C 44.1°F6.7°C 79% 4.0 mph SE6.4 kmh SE 8.0 mph12.9 kmh 30.03 in1016.9 mb 0.00 in0.0 mm 0.00 in/hr0.0 mm/hr 0.00 in0.0 mm
09:00 AM 50.4°F10.2°C 44.1°F6.7°C 79% 4.0 mph SE6.4 kmh SE 8.0 mph12.9 kmh 30.03 in1016.9 mb 0.00 in0.0 mm 0.00 in/hr0.0 mm/hr 0.00 in0.0 mm
08:45 AM 50.4°F10.2°C 44.1°F6.7°C 79% 4.0 mph SE6.4 kmh SE 8.0 mph12.9 kmh 30.03 in1016.9 mb 0.00 in0.0 mm 0.00 in/hr0.0 mm/hr 0.00 in0.0 mm
08:30 AM 50.4°F10.2°C 44.1°F6.7°C 79% 4.0 mph SE6.4 kmh SE 8.0 mph12.9 kmh 30.03 in1016.9 mb 0.00 in0.0 mm 0.00 in/hr0.0 mm/hr 0.00 in0.0 mm
08:15 AM 50.4°F10.2°C 44.1°F6.7°C 79% 4.0 mph SE6.4 kmh SE 8.0 mph12.9 kmh 30.03 in1016.9 mb 0.00 in0.0 mm 0.00 in/hr0.0 mm/hr 0.00 in0.0 mm
08:00 AM 50.4°F10.2°C 44.1°F6.7°C 79% 4.0 mph SE6.4 kmh SE 8.0 mph12.9 kmh 30.03 in1016.9 mb 0.00 in0.0 mm 0.00 in/hr0.0 mm/hr 0.00 in0.0 mm
07:45 AM 50.4°F10.2°C 44.1°F6.7°C 79% 4.0 mph SE6.4 kmh SE 8.0 mph12.9 kmh 30.03 in1016.9 mb 0.00 in0.0 mm 0.00 in/hr0.0 mm/hr 0.00 in0.0 mm
07:30 AM 50.4°F10.2°C 44.1°F6.7°C 79% 4.0 mph SE6.4 kmh SE 8.0 mph12.9 kmh 30.03 in1016.9 mb 0.00 in0.0 mm 0.00 in/hr0.0 mm/hr 0.00 in0.0 mm
07:15 AM 50.4°F10.2°C 44.1°F6.7°C 79% 4.0 mph SE6.4 kmh SE 8.0 mph12.9 kmh 30.03 in1016.9 mb 0.00 in0.0 mm 0.00 in/hr0.0 mm/hr 0.00 in0.0 mm
07:00 AM 50.4°F10.2°C 44.1°F6.7°C 79% 4.0 mph SE6.4 kmh SE 8.0 mph12.9 kmh 30.03 in1016.9 mb 0.00 in0.0 mm 0.00 in/hr0.0 mm/hr 0.00 in0.0 mm
06:45 AM 50.4°F10.2°C 44.1°F6.7°C 79% 4.0 mph SE6.4 kmh SE 8.0 mph12.9 kmh 30.03 in1016.9 mb 0.00 in0.0 mm 0.00 in/hr0.0 mm/hr 0.00 in0.0 mm
06:30 AM 50.4°F10.2°C 44.1°F6.7°C 79% 4.0 mph SE6.4 kmh SE 8.0 mph12.9 kmh 30.03 in1016.9 mb 0.00 in0.0 mm 0.00 in/hr0.0 mm/hr 0.00 in0.0 mm
06:15 AM 50.4°F10.2°C 44.1°F6.7°C 79% 4.0 mph SE6.4 kmh SE 8.0 mph12.9 kmh 30.03 in1016.9 mb 0.00 in0.0 mm 0.00 in/hr0.0 mm/hr 0.00 in0.0 mm
06:00 AM 50.4°F10.2°C 44.1°F6.7°C 79% 4.0 mph SE6.4 kmh SE 8.0 mph12.9 kmh 30.03 in1016.9 mb 0.00 in0.0 mm 0.00 in/hr0.0 mm/hr 0.00 in0.0 mm
05:45 AM 50.4°F10.2°C 44.1°F6.7°C 79% 4.0 mph SE6.4 kmh SE 8.0 mph12.9 kmh 30.03 in1016.9 mb 0.00 in0.0 mm 0.00 in/hr0.0 mm/hr 0.00 in0.0 mm
05:30 AM 50.4°F10.2°C 44.1°F6.7°C 79% 4.0 mph SE6.4 kmh SE 8.0 mph12.9 kmh 30.03 in1016.9 mb 0.00 in0.0 mm 0.00 in/hr0.0 mm/hr 0.00 in0.0 mm
05:15 AM 50.4°F10.2°C 44.1°F6.7°C 79% 4.0 mph SE6.4 kmh SE 8.0 mph12.9 kmh 30.03 in1016.9 mb 0.00 in0.0 mm 0.00 in/hr0.0 mm/hr 0.00 in0.0 mm
05:00 AM 50.4°F10.2°C 44.1°F6.7°C 79% 4.0 mph SE6.4 kmh SE 8.0 mph12.9 kmh 30.03 in1016.9 mb 0.00 in0.0 mm 0.00 in/hr0.0 mm/hr 0.00 in0.0 mm
04:45 AM 50.4°F10.2°C 44.1°F6.7°C 79% 4.0 mph SE6.4 kmh SE 8.0 mph12.9 kmh 30.03 in1016.9 mb 0.00 in0.0 mm 0.00 in/hr0.0 mm/hr 0.00 in0.0 mm
04:30 AM 50.4°F10.2°C 44.1°F6.7°C 79% 4.0 mph SE6.4 kmh SE 8.0 mph12.9 kmh 30.03 in1016.9 mb 0.00 in0.0 mm 0.00 in/hr0.0 mm/hr 0.00 in0.0 mm
04:15 AM 50.4°F10.2°C 44.1°F6.7°C 79% 4.0 mph SE6.4 kmh SE 8.0 mph12.9 kmh 30.03 in1016.9 mb 0.00 in0.0 mm 0.00 in/hr0.0 mm/hr 0.00 in0.0 mm
04:00 AM 50.4°F10.2°C 44.1°F6.7°C 79% 4.0 mph SE6.4 kmh SE 8.0 mph12.9 kmh 30.03 in1016.9 mb 0.00 in0.0 mm 0.00 in/hr0.0 mm/hr 0.00 in0.0 mm
03:45 AM 50.4°F10.2°C 44.1°F6.7°C 79% 4.0 mph SE6.4 kmh SE 8.0 mph12.9 kmh 30.03 in1016.9 mb 0.00 in0.0 mm 0.00 in/hr0.0 mm/hr 0.00 in0.0 mm
03:30 AM 50.4°F10.2°C 44.1°F6.7°C 79% 4.0 mph SE6.4 kmh SE 8.0 mph12.9 kmh 30.03 in1016.9 mb 0.00 in0.0 mm 0.00 in/hr0.0 mm/hr 0.00 in0.0 mm
03:15 AM 50.4°F10.2°C 44.1°F6.7°C 79% 4.0 mph SE6.4 kmh SE 8.0 mph12.9 kmh 30.03 in1016.9 mb 0.00 in0.0 mm 0.00 in/hr0.0 mm/hr 0.00 in0.0 mm
03:00 AM 50.4°F10.2°C 44.1°F6.7°C 79% 4.0 mph SE6.4 kmh SE 8.0 mph12.9 kmh 30.03 in1016.9 mb 0.00 in0.0 mm 0.00 in/hr0.0 mm/hr 0.00 in0.0 mm
02:45 AM 50.4°F10.2°C 44.1°F6.7°C 79% 4.0 mph SE6.4 kmh SE 8.0 mph12.9 kmh 30.03 in1016.9 mb 0.00 in0.0 mm 0.00 in/hr0.0 mm/hr 0.00 in0.0 mm
02:30 AM 50.4°F10.2°C 44.1°F6.7°C 79% 4.0 mph SE6.4 kmh SE 8.0 mph12.9 kmh 30.03 in1016.9 mb 0.00 in0.0 mm 0.00 in/hr0.0 mm/hr 0.00 in0.0 mm
02:15 AM 50.4°F10.2°C 44.1°F6.7°C 79% 4.0 mph SE6.4 kmh SE 8.0 mph12.9 kmh 30.03 in1016.9 mb 0.00 in0.0 mm 0.00 in/hr0.0 mm/hr 0.00 in0.0 mm
02:00 AM 50.4°F10.2°C 44.1°F6.7°C 79% 4.0 mph SE6.4 kmh SE 8.0 mph12.9 kmh 30.03 in1016.9 mb 0.00 in0.0 mm 0.00 in/hr0.0 mm/hr 0.00 in0.0 mm
01:45 AM 50.4°F10.2°C 44.1°F6.7°C 79% 4.0 mph SE6.4 kmh SE 8.0 mph12.9 kmh 30.03 in1016.9 mb 0.00 in0.0 mm 0.00 in/hr0.0 mm/hr 0.00 in0.0 mm
01:30 AM 50.4°F10.2°C 44.1°F6.7°C 79% 4.0 mph SE6.4 kmh SE 8.0 mph12.9 kmh 30.03 in1016.9 mb 0.00 in0.0 mm 0.00 in/hr0.0 mm/hr 0.00 in0.0 mm
01:15 AM 50.4°F10.2°C 44.1°F6.7°C 79% 4.0 mph SE6.4 kmh SE 8.0 mph12.9 kmh 30.03 in1016.9 mb 0.00 in0.0 mm 0.00 in/hr0.0 mm/hr 0.00 in0.0 mm
01:00 AM 50.4°F10.2°C 44.1°F6.7°C 79% 4.0 mph SE6.4 kmh SE 8.0 mph12.9 kmh 30.03 in1016.9 mb 0.00 in0.0 mm 0.00 in/hr0.0 mm/hr 0.00 in0.0 mm
12:45 AM 50.4°F10.2°C 44.1°F6.7°C 79% 4.0 mph SE6.4 kmh SE 8.0 mph12.9 kmh 30.03 in1016.9 mb 0.00 in0.0 mm 0.00 in/hr0.0 mm/hr 0.00 in0.0 mm
12:30 AM 50.4°F10.2°C 44.1°F6.7°C 79% 4.0 mph SE6.4 kmh SE 8.0 mph12.9 kmh 30.03 in1016.9 mb 0.00 in0.0 mm 0.00 in/hr0.0 mm/hr 0.00 in0.0 mm
12:15 AM 50.4°F10.2°C 44.1°F6.7°C 79% 4.0 mph SE6.4 kmh SE 8.0 mph12.9 kmh 30.03 in1016.9 mb 0.00 in0.0 mm 0.00 in/hr0.0 mm/hr 0.00 in0.0 mm
12:00 AM 50.4°F10.2°C 44.1°F6.7°C 79% 4.0 mph SE6.4 kmh SE 8.0 mph12.9 kmh 30.03 in1016.9 mb 0.00 in0.0 mm 0.00 in/hr0.0 mm/hr 0.00 in0.0 mm